Time;durP1;ratioP1;P1;durP2;ratioP2;P2;SDS_P1;SDS_P2;PMS_P1;PMS_P2;Temp;Humidity;BMP_temperature;BMP_pressure;BME280_temperature;BME280_humidity;BME280_pressure;Samples;Min_cycle;Max_cycle;Signal;HPM_P1;HPM_P2
2022/03/28 00:00:25;;;;;;;9.02;3.58;;;8.10;99.90;;;;;;5111943;28;20047;-77
2022/03/28 00:02:51;;;;;;;5.40;2.28;;;8.10;99.90;;;;;;5111433;27;20489;-77
2022/03/28 00:05:17;;;;;;;8.38;2.20;;;8.00;99.90;;;;;;5111422;28;20039;-77
2022/03/28 00:07:44;;;;;;;7.78;3.00;;;8.00;99.90;;;;;;5111850;28;20078;-77
2022/03/28 00:10:11;;;;;;;7.72;3.00;;;8.00;99.90;;;;;;5129434;28;20038;-77
2022/03/28 00:12:38;;;;;;;4.25;2.75;;;8.00;99.90;;;;;;5111492;28;20039;-76
2022/03/28 00:15:05;;;;;;;7.53;3.08;;;8.00;99.90;;;;;;5094724;28;20084;-77
2022/03/28 00:17:32;;;;;;;6.35;3.85;;;8.00;99.90;;;;;;5111945;28;20481;-77
2022/03/28 00:19:59;;;;;;;11.15;4.43;;;7.90;99.90;;;;;;5111850;28;20039;-77
2022/03/28 00:22:24;;;;;;;7.80;4.60;;;7.90;99.90;;;;;;5110995;28;20798;-77
2022/03/28 00:24:50;;;;;;;6.60;3.85;;;7.90;99.90;;;;;;5094775;28;20064;-77
2022/03/28 00:27:17;;;;;;;7.78;4.80;;;8.00;99.90;;;;;;5108559;28;20081;-77
2022/03/28 00:29:44;;;;;;;5.85;4.40;;;7.90;99.90;;;;;;5124698;28;20512;-77
2022/03/28 00:32:10;;;;;;;9.05;4.03;;;7.90;99.90;;;;;;5120853;28;20052;-77
2022/03/28 00:34:36;;;;;;;4.95;2.85;;;8.00;99.90;;;;;;5109259;28;20082;-77
2022/03/28 00:37:02;;;;;;;5.50;2.90;;;7.90;99.90;;;;;;5091042;28;20071;-76
2022/03/28 00:39:27;;;;;;;3.95;2.42;;;7.90;99.90;;;;;;5124601;28;20048;-76
2022/03/28 00:41:53;;;;;;;6.93;2.85;;;7.90;99.90;;;;;;5090671;28;20524;-77
2022/03/28 00:44:19;;;;;;;5.90;2.78;;;7.90;99.90;;;;;;5109315;28;20051;-77
2022/03/28 00:46:45;;;;;;;7.30;3.05;;;7.80;99.90;;;;;;5103526;28;20450;-76
2022/03/28 00:49:11;;;;;;;5.72;3.33;;;7.70;99.90;;;;;;5088900;28;20090;-77
2022/03/28 00:51:37;;;;;;;5.63;3.70;;;7.70;99.90;;;;;;5089085;28;20080;-77
2022/03/28 00:54:03;;;;;;;;;;;7.60;99.90;;;;;;5089172;28;20044;-77
2022/03/28 00:56:29;;;;;;;;;;;7.60;99.90;;;;;;5088273;28;19924;-77
2022/03/28 00:58:55;;;;;;;;;;;7.50;99.90;;;;;;5088003;28;19924;-77
2022/03/28 01:01:20;;;;;;;;;;;7.50;99.90;;;;;;5087786;28;19924;-77
2022/03/28 01:03:46;;;;;;;;;;;7.50;99.90;;;;;;5096693;28;19974;-77
2022/03/28 01:06:12;;;;;;;;;;;7.50;99.90;;;;;;5112878;28;19947;-77
2022/03/28 01:08:38;;;;;;;;;;;7.60;99.90;;;;;;5113549;28;19972;-77
2022/03/28 01:11:09;;;;;;;;;;;7.50;99.90;;;;;;5111797;28;19920;-77
2022/03/28 01:13:36;;;;;;;;;;;7.50;99.90;;;;;;5112268;28;19966;-77
2022/03/28 01:16:02;;;;;;;;;;;7.50;99.90;;;;;;5113185;28;19920;-77
2022/03/28 01:18:28;;;;;;;;;;;7.50;99.90;;;;;;5112888;28;19924;-77
2022/03/28 01:20:55;;;;;;;;;;;7.40;99.90;;;;;;5113161;28;19920;-77
2022/03/28 01:23:20;;;;;;;;;;;7.40;99.90;;;;;;5112927;28;20377;-77
2022/03/28 01:25:48;;;;;;;;;;;7.40;99.90;;;;;;5113069;28;19919;-77
2022/03/28 01:28:15;;;;;;;;;;;7.40;99.90;;;;;;5111604;28;19920;-77
2022/03/28 01:30:40;;;;;;;;;;;7.40;99.90;;;;;;5112586;28;19926;-77
2022/03/28 01:33:06;;;;;;;;;;;7.40;99.90;;;;;;5111450;28;19923;-77
2022/03/28 01:35:35;;;;;;;;;;;7.40;99.90;;;;;;5112662;28;19919;-77
2022/03/28 01:38:03;;;;;;;;;;;7.40;99.90;;;;;;5111515;28;19923;-77
2022/03/28 01:40:29;;;;;;;;;;;7.40;99.90;;;;;;5113330;27;20658;-77
2022/03/28 01:42:55;;;;;;;;;;;7.30;99.90;;;;;;5133094;27;19924;-77
2022/03/28 01:45:20;;;;;;;;;;;7.30;99.90;;;;;;5132996;27;19938;-77
2022/03/28 01:47:46;;;;;;;;;;;7.30;99.90;;;;;;5133435;27;19924;-77
2022/03/28 01:50:12;;;;;;;;;;;7.20;99.90;;;;;;5114114;27;19933;-77
2022/03/28 01:52:38;;;;;;;;;;;7.20;99.90;;;;;;5114531;27;19919;-77
2022/03/28 01:55:04;;;;;;;;;;;7.20;99.90;;;;;;5114807;27;19926;-77
2022/03/28 01:57:30;;;;;;;;;;;7.10;99.90;;;;;;5114682;27;19941;-77
2022/03/28 01:59:55;;;;;;;;;;;7.10;99.90;;;;;;5132791;27;20415;-77
2022/03/28 02:02:21;;;;;;;;;;;7.10;99.90;;;;;;5132499;27;19968;-77
2022/03/28 02:04:46;;;;;;;;;;;7.10;99.90;;;;;;5114817;27;20313;-77
2022/03/28 02:07:12;;;;;;;;;;;7.00;99.90;;;;;;5132594;27;19919;-77
2022/03/28 02:09:37;;;;;;;;;;;7.00;99.90;;;;;;5114483;27;20006;-77
2022/03/28 02:12:03;;;;;;;;;;;7.00;99.90;;;;;;5114332;27;19965;-77
2022/03/28 02:14:29;;;;;;;;;;;7.00;99.90;;;;;;5113657;27;19923;-77
2022/03/28 02:16:54;;;;;;;;;;;7.00;99.90;;;;;;5132301;27;20464;-77
2022/03/28 02:19:20;;;;;;;;;;;6.90;99.90;;;;;;5114070;27;20014;-77
2022/03/28 02:21:45;;;;;;;;;;;6.90;99.90;;;;;;5114142;27;20310;-76
2022/03/28 02:24:11;;;;;;;;;;;6.80;99.90;;;;;;5132167;27;19926;-77
2022/03/28 02:26:37;;;;;;;;;;;6.80;99.90;;;;;;5113849;27;20500;-77
2022/03/28 02:29:03;;;;;;;;;;;6.80;99.90;;;;;;5131962;27;19919;-77
2022/03/28 02:31:28;;;;;;;;;;;6.80;99.90;;;;;;5113729;27;20317;-77
2022/03/28 02:33:54;;;;;;;;;;;6.80;99.90;;;;;;5113749;27;19946;-77
2022/03/28 02:36:19;;;;;;;;;;;6.90;99.90;;;;;;5113897;27;19968;-77
2022/03/28 02:38:45;;;;;;;;;;;6.90;99.90;;;;;;5101985;28;20436;-77
2022/03/28 02:41:10;;;;;;;;;;;6.90;99.90;;;;;;5111415;28;20022;-77
2022/03/28 02:43:36;;;;;;;;;;;6.80;99.90;;;;;;5111438;28;19919;-77
2022/03/28 02:46:01;;;;;;;;;;;6.90;99.90;;;;;;5111536;28;19920;-77
2022/03/28 02:48:27;;;;;;;;;;;6.90;99.90;;;;;;5092838;28;20305;-77
2022/03/28 02:50:52;;;;;;;;;;;6.90;99.90;;;;;;5093366;28;20289;-77
2022/03/28 02:53:18;;;;;;;;;;;6.90;99.90;;;;;;5092933;28;19930;-77
2022/03/28 02:55:43;;;;;;;;;;;6.90;99.90;;;;;;5110724;28;19926;-77
2022/03/28 02:58:09;;;;;;;;;;;6.90;99.90;;;;;;5111106;28;19927;-77
2022/03/28 03:00:35;;;;;;;;;;;6.80;99.90;;;;;;5111253;28;19923;-77
2022/03/28 03:03:00;;;;;;;;;;;6.80;99.90;;;;;;5111155;28;19919;-77
2022/03/28 03:05:26;;;;;;;;;;;6.80;99.90;;;;;;5110321;28;19927;-77
2022/03/28 03:07:52;;;;;;;;;;;6.70;99.90;;;;;;5093033;28;19919;-77
2022/03/28 03:10:17;;;;;;;;;;;6.70;99.90;;;;;;5092286;28;19924;-77
2022/03/28 03:12:43;;;;;;;;;;;6.70;99.90;;;;;;5110829;28;20022;-77
2022/03/28 03:15:08;;;;;;;;;;;6.70;99.90;;;;;;5092494;28;19923;-77
2022/03/28 03:17:35;;;;;;;;;;;6.70;99.90;;;;;;5092916;28;20335;-77
2022/03/28 03:20:01;;;;;;;;;;;6.80;99.90;;;;;;5092870;28;20018;-77
2022/03/28 03:22:26;;;;;;;;;;;6.80;99.90;;;;;;5110274;28;20010;-77
2022/03/28 03:24:52;;;;;;;;;;;6.70;99.90;;;;;;5111153;28;20012;-77
2022/03/28 03:27:17;;;;;;;;;;;6.70;99.90;;;;;;5092063;28;20401;-77
2022/03/28 03:29:43;;;;;;;;;;;6.70;99.90;;;;;;5092436;28;19920;-77
2022/03/28 03:32:08;;;;;;;;;;;6.70;99.90;;;;;;5110476;28;19924;-77
2022/03/28 03:34:34;;;;;;;;;;;6.70;99.90;;;;;;5110647;28;19969;-77
2022/03/28 03:37:00;;;;;;;;;;;6.70;99.90;;;;;;5110046;28;19919;-77
2022/03/28 03:39:26;;;;;;;;;;;6.70;99.90;;;;;;5109856;27;20005;-77
2022/03/28 03:41:52;;;;;;;;;;;6.70;99.90;;;;;;5095863;27;20448;-77
2022/03/28 03:44:17;;;;;;;;;;;6.70;99.90;;;;;;5130792;27;20381;-77
2022/03/28 03:46:43;;;;;;;;;;;6.70;99.90;;;;;;5130990;27;19980;-77
2022/03/28 03:49:08;;;;;;;;;;;6.70;99.90;;;;;;5130777;27;20015;-77
2022/03/28 03:51:34;;;;;;;;;;;6.60;99.90;;;;;;5112637;27;19923;-77
2022/03/28 03:54:00;;;;;;;;;;;6.70;99.90;;;;;;5112303;27;19920;-77
2022/03/28 03:56:28;;;;;;;;;;;6.70;99.90;;;;;;5112759;27;19927;-77
2022/03/28 03:58:53;;;;;;;;;;;6.70;99.90;;;;;;5131045;27;19919;-77
2022/03/28 04:01:20;;;;;;;;;;;6.80;99.90;;;;;;5130048;27;19924;-77
2022/03/28 04:03:45;;;;;;;;;;;6.80;99.90;;;;;;5130897;27;19967;-77
2022/03/28 04:06:11;;;;;;;;;;;6.90;99.90;;;;;;5112185;28;20031;-77
2022/03/28 04:08:37;;;;;;;;;;;6.90;99.90;;;;;;5130661;28;19959;-77
2022/03/28 04:11:03;;;;;;;;;;;6.90;99.90;;;;;;5130557;28;20070;-77
2022/03/28 04:13:28;;;;;;;;;;;6.90;99.90;;;;;;5111744;28;20612;-77
2022/03/28 04:15:54;;;;;;;;;;;7.00;99.90;;;;;;5112353;28;19923;-77
2022/03/28 04:18:20;;;;;;;;;;;7.00;99.90;;;;;;5111562;28;19919;-77
2022/03/28 04:20:46;;;;;;;;;;;7.00;99.90;;;;;;5095200;28;19919;-77
2022/03/28 04:23:11;;;;;;;;;;;7.00;99.90;;;;;;5112092;28;20385;-77
2022/03/28 04:25:37;;;;;;;;;;;7.00;99.90;;;;;;5111843;28;19919;-77
2022/03/28 04:28:05;;;;;;;;;;;7.00;99.90;;;;;;5130037;28;19919;-77
2022/03/28 04:30:30;;;;;;;;;;;6.90;99.90;;;;;;5130293;28;19963;-77
2022/03/28 04:32:56;;;;;;;;;;;6.90;99.90;;;;;;5130395;28;19970;-77
2022/03/28 04:35:22;;;;;;;;;;;6.90;99.90;;;;;;5130035;28;20022;-77
2022/03/28 04:37:47;;;;;;;;;;;6.90;99.90;;;;;;5131212;27;20030;-77
2022/03/28 04:40:15;;;;;;;;;;;6.90;99.90;;;;;;5134572;27;20005;-77
2022/03/28 04:42:40;;;;;;;;;;;6.80;99.90;;;;;;5134452;27;20006;-77
2022/03/28 04:45:06;;;;;;;;;;;6.80;99.90;;;;;;5115936;27;20027;-77
2022/03/28 04:47:32;;;;;;;;;;;6.80;99.90;;;;;;5115544;27;19919;-77
2022/03/28 04:49:57;;;;;;;;;;;6.80;99.90;;;;;;5098928;27;20416;-77
2022/03/28 04:52:23;;;;;;;;;;;6.80;99.90;;;;;;5115578;27;20301;-77
2022/03/28 04:54:48;;;;;;;;;;;6.80;99.90;;;;;;5134067;27;19928;-77
2022/03/28 04:57:14;;;;;;;;;;;6.80;99.90;;;;;;5115909;27;20738;-77
2022/03/28 04:59:39;;;;;;;;;;;6.90;99.90;;;;;;5115779;27;19919;-77
2022/03/28 05:02:06;;;;;;;;;;;6.80;99.90;;;;;;5115461;27;19919;-77
2022/03/28 05:04:32;;;;;;;;;;;6.80;99.90;;;;;;5115699;27;19919;-77
2022/03/28 05:06:57;;;;;;;;;;;6.80;99.90;;;;;;5115589;27;19926;-77
2022/03/28 05:09:23;;;;;;;;;;;6.80;99.90;;;;;;5115432;27;20010;-78
2022/03/28 05:11:48;;;;;;;;;;;6.80;99.90;;;;;;5115132;27;19926;-77
2022/03/28 05:14:14;;;;;;;;;;;6.80;99.90;;;;;;5115686;27;19969;-77
2022/03/28 05:16:39;;;;;;;;;;;6.80;99.90;;;;;;5115550;27;19919;-77
2022/03/28 05:19:05;;;;;;;;;;;6.80;99.90;;;;;;5114918;27;20534;-76
2022/03/28 05:21:30;;;;;;;;;;;6.80;99.90;;;;;;5115407;27;20307;-76
2022/03/28 05:23:56;;;;;;;;;;;6.80;99.90;;;;;;5115368;27;19919;-76
2022/03/28 05:26:21;;;;;;;;;;;6.80;99.90;;;;;;5114723;27;19965;-76
2022/03/28 05:28:47;;;;;;;;;;;6.80;99.90;;;;;;5133353;27;19970;-76
2022/03/28 05:31:12;;;;;;;;;;;6.80;99.90;;;;;;5115112;27;19926;-76
2022/03/28 05:33:38;;;;;;;;;;;6.90;99.90;;;;;;5133502;27;20006;-77
2022/03/28 05:36:04;;;;;;;;;;;6.80;99.90;;;;;;5133523;27;20547;-77
2022/03/28 05:38:29;;;;;;;;;;;6.80;99.90;;;;;;5123212;27;19923;-77
2022/03/28 05:40:56;;;;;;;;;;;6.80;99.90;;;;;;5094689;28;19924;-77
2022/03/28 05:43:25;;;;;;;;;;;6.70;99.90;;;;;;5112622;28;20003;-77
2022/03/28 05:45:52;;;;;;;;;;;6.80;99.90;;;;;;5094240;28;19920;-76
2022/03/28 05:48:18;;;;;;;;;;;6.80;99.90;;;;;;5092593;27;19979;-77
2022/03/28 05:50:44;;;;;;;;;;;6.70;99.90;;;;;;5103011;27;20085;-76
2022/03/28 05:53:13;;;;;;;;;;;6.70;99.90;;;;;;5109482;27;20014;-77
2022/03/28 05:55:42;;;;;;;;;;;6.70;99.90;;;;;;5132875;27;20391;-77
2022/03/28 05:58:08;;;;;;;;;;;6.70;99.90;;;;;;5132433;27;19933;-77
2022/03/28 06:00:34;;;;;;;;;;;6.70;99.90;;;;;;5114010;27;19934;-77
2022/03/28 06:03:00;;;;;;;;;;;6.70;99.90;;;;;;5114537;27;19920;-77
2022/03/28 06:05:25;;;;;;;;;;;6.60;99.90;;;;;;5114145;27;20285;-77
2022/03/28 06:07:51;;;;;;;;;;;6.60;99.90;;;;;;5114212;27;19926;-76
2022/03/28 06:10:16;;;;;;;;;;;6.60;99.90;;;;;;5114190;27;19927;-77
2022/03/28 06:12:42;;;;;;;;;;;6.60;99.90;;;;;;5114073;27;19926;-77
2022/03/28 06:15:08;;;;;;;;;;;6.60;99.90;;;;;;5132824;27;20369;-77
2022/03/28 06:17:34;;;;;;;;;;;6.60;99.90;;;;;;5114348;27;20360;-77
2022/03/28 06:20:01;;;;;;;;;;;6.60;99.90;;;;;;5132642;27;20663;-77
2022/03/28 06:22:26;;;;;;;;;;;6.50;99.90;;;;;;5132369;27;20018;-76
2022/03/28 06:24:52;;;;;;;;;;;6.50;99.90;;;;;;5114159;27;20034;-76
2022/03/28 06:27:23;;;;;;;;;;;6.60;99.90;;;;;;5132003;27;19930;-77
2022/03/28 06:29:52;;;;;;;;;;;6.60;99.90;;;;;;5113589;27;19919;-77
2022/03/28 06:32:18;;;;;;;;;;;6.60;99.90;;;;;;5131645;27;19927;-77
2022/03/28 06:34:43;;;;;;;;;;;6.60;99.90;;;;;;5114306;27;19926;-77
2022/03/28 06:37:08;;;;;;;;;;;6.60;99.90;;;;;;5113538;27;19973;-77
2022/03/28 06:39:35;;;;;;;;;;;6.70;99.90;;;;;;5094959;28;20297;-77
2022/03/28 06:42:01;;;;;;;;;;;6.70;99.90;;;;;;5111436;28;19919;-77
2022/03/28 06:44:26;;;;;;;;;;;6.70;99.90;;;;;;5092935;28;19923;-77
2022/03/28 06:46:52;;;;;;;;;;;6.70;99.90;;;;;;5111462;28;19974;-76
2022/03/28 06:49:17;;;;;;;;;;;6.70;99.90;;;;;;5093376;28;19924;-77
2022/03/28 06:51:43;;;;;;;;;;;6.70;99.90;;;;;;5111665;28;19927;-77
2022/03/28 06:54:09;;;;;;;9.48;6.10;;;6.80;99.90;;;;;;5092117;28;19985;-77
2022/03/28 06:56:37;;;;;;;9.50;6.40;;;6.80;99.90;;;;;;5110789;28;20421;-77
2022/03/28 06:59:03;;;;;;;9.18;6.25;;;6.80;99.90;;;;;;5110690;28;20048;-76
2022/03/28 07:01:28;;;;;;;9.27;6.35;;;6.80;99.90;;;;;;5092368;28;20050;-76
2022/03/28 07:03:55;;;;;;;8.68;6.32;;;6.80;99.90;;;;;;5110560;28;20058;-77
2022/03/28 07:06:21;;;;;;;10.75;7.57;;;6.80;99.90;;;;;;5110819;28;20047;-76
2022/03/28 07:08:47;;;;;;;9.77;6.88;;;6.90;99.90;;;;;;5110464;28;20050;-77
2022/03/28 07:11:13;;;;;;;11.52;7.30;;;6.90;99.90;;;;;;5091947;28;20048;-76
2022/03/28 07:13:38;;;;;;;11.23;8.00;;;6.90;99.90;;;;;;5110681;28;20092;-77
2022/03/28 07:16:04;;;;;;;10.90;7.38;;;6.90;99.90;;;;;;5092466;28;20505;-76
2022/03/28 07:18:29;;;;;;;10.90;7.90;;;7.00;99.90;;;;;;5109782;28;20062;-76
2022/03/28 07:20:55;;;;;;;14.50;8.43;;;7.00;99.90;;;;;;5110399;28;20084;-76
2022/03/28 07:23:22;;;;;;;11.38;8.00;;;7.00;99.90;;;;;;5110253;28;20047;-76
2022/03/28 07:25:48;;;;;;;14.85;8.70;;;7.10;99.90;;;;;;5110263;28;20058;-76
2022/03/28 07:28:14;;;;;;;17.00;9.75;;;7.10;99.90;;;;;;5109930;28;20051;-76
2022/03/28 07:30:41;;;;;;;;;;;7.10;99.90;;;;;;5110284;28;20062;-76
2022/03/28 07:33:07;;;;;;;;;;;7.10;99.90;;;;;;5092354;28;20435;-77
2022/03/28 07:35:35;;;;;;;;;;;7.10;99.90;;;;;;5092238;28;19920;-77
2022/03/28 07:38:01;;;;;;;;;;;7.10;99.90;;;;;;5115978;27;19926;-77
2022/03/28 07:40:27;;;;;;;;;;;7.10;99.90;;;;;;5130586;27;19925;-77
2022/03/28 07:42:53;;;;;;;;;;;7.20;99.90;;;;;;5130437;27;19919;-77
2022/03/28 07:45:19;;;;;;;;;;;7.30;99.90;;;;;;5112659;27;19923;-77
2022/03/28 07:47:44;;;;;;;;;;;7.30;99.90;;;;;;5112559;27;20001;-77
2022/03/28 07:50:10;;;;;;;;;;;7.30;99.90;;;;;;5112264;27;19967;-77
2022/03/28 07:52:36;;;;;;;;;;;7.40;99.90;;;;;;5130875;27;19930;-77
2022/03/28 07:55:02;;;;;;;;;;;7.30;99.90;;;;;;5111959;27;19926;-77
2022/03/28 07:57:28;;;;;;;;;;;7.30;99.90;;;;;;5111562;27;19924;-77
2022/03/28 07:59:54;;;;;;;;;;;7.30;99.90;;;;;;5112119;28;20320;-77
2022/03/28 08:02:19;;;;;;;;;;;7.30;99.90;;;;;;5111697;27;20343;-77
2022/03/28 08:04:45;;;;;;;;;;;7.30;99.90;;;;;;5112130;27;19919;-77
2022/03/28 08:07:11;;;;;;;;;;;7.30;99.90;;;;;;5130582;27;19981;-77
2022/03/28 08:09:41;;;;;;;;;;;7.40;99.90;;;;;;5112244;27;19919;-77
2022/03/28 08:12:07;;;;;;;;;;;7.50;99.90;;;;;;5129898;27;20248;-77
2022/03/28 08:14:33;;;;;;;;;;;7.50;99.90;;;;;;5111949;28;20285;-77
2022/03/28 08:16:58;;;;;;;;;;;7.60;99.90;;;;;;5112414;28;20401;-77
2022/03/28 08:19:24;;;;;;;;;;;7.60;99.90;;;;;;5111979;28;19919;-77
2022/03/28 08:21:50;;;;;;;;;;;7.60;99.90;;;;;;5112062;28;20124;-77
2022/03/28 08:24:15;;;;;;;;;;;7.60;99.90;;;;;;5111645;28;19963;-77
2022/03/28 08:26:41;;;;;;;;;;;7.70;99.90;;;;;;5112113;28;20018;-77
2022/03/28 08:29:07;;;;;;;;;;;7.80;99.90;;;;;;5112155;28;19931;-77
2022/03/28 08:31:33;;;;;;;;;;;7.80;99.90;;;;;;5094965;28;19919;-77
2022/03/28 08:33:59;;;;;;;;;;;7.90;99.90;;;;;;5112212;28;19920;-77
2022/03/28 08:36:24;;;;;;;;;;;8.00;99.90;;;;;;5130388;28;19923;-76
2022/03/28 08:38:50;;;;;;;;;;;8.00;99.90;;;;;;5117484;28;20479;-76
2022/03/28 08:41:18;;;;;;;;;;;8.00;99.90;;;;;;5109612;28;19926;-76
2022/03/28 08:43:43;;;;;;;;;;;8.10;99.90;;;;;;5091917;28;19920;-76
2022/03/28 08:46:10;;;;;;;;;;;8.10;99.90;;;;;;5109368;28;20411;-77
2022/03/28 08:48:40;;;;;;;;;;;8.10;99.90;;;;;;5091289;28;19919;-77
2022/03/28 08:51:07;;;;;;;;;;;8.20;99.90;;;;;;5091183;28;19923;-76
2022/03/28 08:53:32;;;;;;;;;;;8.20;99.90;;;;;;5091381;28;19920;-76
2022/03/28 08:55:58;;;;;;;;;;;8.30;99.90;;;;;;5091367;28;19945;-76
2022/03/28 08:58:23;;;;;;;;;;;8.30;99.90;;;;;;5091474;28;19924;-76
2022/03/28 09:00:49;;;;;;;;;;;8.40;99.90;;;;;;5091425;28;19919;-76
2022/03/28 09:03:15;;;;;;;;;;;8.40;99.90;;;;;;5091313;28;19924;-77
2022/03/28 09:05:40;;;;;;;;;;;8.40;99.90;;;;;;5109835;28;19920;-76
2022/03/28 09:08:07;;;;;;;;;;;8.40;99.90;;;;;;5091357;28;19924;-76
2022/03/28 09:10:33;;;;;;;;;;;8.40;99.90;;;;;;5091512;28;20293;-76
2022/03/28 09:13:06;;;;;;;;;;;8.40;99.90;;;;;;5091261;28;19941;-76
2022/03/28 09:15:42;;;;;;;;;;;8.30;99.90;;;;;;5109051;28;19930;-77
2022/03/28 09:18:10;;;;;;;;;;;8.30;99.90;;;;;;5090979;28;19972;-76
2022/03/28 09:20:35;;;;;;;;;;;8.30;99.90;;;;;;5091041;28;19923;-76
2022/03/28 09:23:21;;;;;;;;;;;8.30;99.90;;;;;;5091739;28;20282;-77
2022/03/28 09:25:50;;;;;;;;;;;8.30;99.90;;;;;;5078164;28;19964;-76
2022/03/28 09:28:22;;;;;;;;;;;8.30;99.90;;;;;;5112904;28;19920;-77
2022/03/28 09:30:48;;;;;;;;;;;8.40;99.90;;;;;;5112770;28;19919;-76
2022/03/28 09:33:17;;;;;;;;;;;8.40;99.90;;;;;;5094504;28;19924;-76
2022/03/28 09:35:45;;;;;;;;;;;8.50;99.90;;;;;;5112746;28;20374;-76
2022/03/28 09:38:12;;;;;;;;;;;8.50;99.90;;;;;;5119317;27;19923;-77
2022/03/28 09:40:42;;;;;;;;;;;8.60;99.90;;;;;;5114943;27;19951;-76
2022/03/28 09:43:25;;;;;;;;;;;8.60;99.90;;;;;;5114908;27;19919;-77
2022/03/28 09:45:51;;;;;;;;;;;8.70;99.90;;;;;;5115347;27;19965;-77
2022/03/28 09:48:19;;;;;;;;;;;8.70;99.90;;;;;;5114699;27;19919;-77
2022/03/28 09:50:47;;;;;;;;;;;8.70;99.90;;;;;;5114478;27;19923;-77
2022/03/28 09:53:15;;;;;;;;;;;8.70;99.90;;;;;;5115050;27;20285;-77
2022/03/28 09:55:53;;;;;;;;;;;8.70;99.90;;;;;;5097645;27;20017;-77
2022/03/28 09:58:30;;;;;;;;;;;8.60;99.90;;;;;;5114682;27;20010;-77
2022/03/28 10:00:56;;;;;;;;;;;8.70;99.90;;;;;;5114545;27;19919;-77
2022/03/28 10:03:22;;;;;;;;;;;8.70;99.90;;;;;;5114598;27;19926;-77
2022/03/28 10:05:48;;;;;;;;;;;8.80;99.90;;;;;;5132479;27;19926;-77
2022/03/28 10:08:13;;;;;;;;;;;8.80;99.90;;;;;;5114189;27;20140;-77
2022/03/28 10:10:39;;;;;;;;;;;8.90;99.90;;;;;;5114663;27;19935;-78
2022/03/28 10:13:04;;;;;;;;;;;9.00;99.90;;;;;;5114412;27;19928;-77
2022/03/28 10:15:30;;;;;;;;;;;9.00;99.90;;;;;;5097291;27;20022;-77
2022/03/28 10:17:55;;;;;;;;;;;9.00;99.90;;;;;;5114876;27;20009;-78
2022/03/28 10:20:22;;;;;;;;;;;9.00;99.90;;;;;;5113267;27;19920;-77
2022/03/28 10:22:50;;;;;;;;;;;9.00;99.90;;;;;;5131729;27;20389;-77
2022/03/28 10:25:19;;;;;;;;;;;9.10;99.90;;;;;;5114074;27;20403;-77
2022/03/28 10:27:45;;;;;;;;;;;9.20;99.90;;;;;;5113766;27;19927;-77
2022/03/28 10:30:20;;;;;;;;;;;9.30;99.90;;;;;;5132213;27;19919;-77
2022/03/28 10:32:46;;;;;;;20.17;14.20;;;9.20;99.90;;;;;;5113092;27;19923;-77
2022/03/28 10:35:13;;;;;;;20.70;16.05;;;9.30;99.90;;;;;;5129644;27;20398;-77
2022/03/28 10:37:41;;;;;;;20.38;17.83;;;9.30;99.90;;;;;;5109622;27;20407;-77
2022/03/28 10:40:27;;;;;;;21.88;17.65;;;9.40;99.90;;;;;;5091605;28;20408;-77
2022/03/28 10:43:11;;;;;;;22.20;19.67;;;9.40;99.90;;;;;;5090820;28;20971;-77
2022/03/28 10:45:49;;;;;;;25.27;19.27;;;9.50;99.90;;;;;;5109720;28;20400;-77
2022/03/28 10:48:16;;;;;;;21.40;19.10;;;9.40;99.90;;;;;;5109275;28;20511;-77
2022/03/28 10:50:55;;;;;;;21.40;18.02;;;9.40;99.90;;;;;;5109615;28;20392;-77
2022/03/28 10:53:31;;;;;;;22.15;19.70;;;9.50;99.90;;;;;;5090739;28;20499;-77
2022/03/28 10:56:03;;;;;;;22.77;18.77;;;9.60;99.90;;;;;;5091417;28;20400;-77
2022/03/28 10:58:35;;;;;;;23.17;19.73;;;9.70;99.90;;;;;;5091448;28;20411;-77
2022/03/28 11:01:12;;;;;;;22.17;19.30;;;9.70;99.90;;;;;;5091387;28;20413;-77
2022/03/28 11:03:59;;;;;;;21.55;18.80;;;9.80;99.90;;;;;;5091383;28;20416;-77
2022/03/28 11:06:46;;;;;;;19.17;17.08;;;9.80;99.90;;;;;;5090819;28;20420;-76
2022/03/28 11:09:12;;;;;;;19.33;14.07;;;9.80;99.90;;;;;;5090489;28;20417;-77
2022/03/28 11:11:58;;;;;;;19.45;15.27;;;9.90;99.90;;;;;;5109293;28;20404;-77
2022/03/28 11:14:51;;;;;;;19.20;16.10;;;9.90;99.90;;;;;;5109074;28;20779;-77
2022/03/28 11:17:22;;;;;;;19.70;16.35;;;9.90;99.90;;;;;;5091058;28;20827;-77
2022/03/28 11:20:07;;;;;;;21.17;16.77;;;10.00;99.90;;;;;;5090379;28;20400;-77
2022/03/28 11:22:49;;;;;;;18.00;16.10;;;10.10;99.90;;;;;;5090898;28;20412;-77
2022/03/28 11:25:28;;;;;;;15.88;12.70;;;10.10;99.90;;;;;;5090869;28;20408;-76
2022/03/28 11:28:17;;;;;;;15.48;12.95;;;10.10;99.90;;;;;;5090679;28;20436;-76
2022/03/28 11:30:45;;;;;;;18.07;13.47;;;10.00;99.90;;;;;;5090570;28;20408;-76
2022/03/28 11:33:21;;;;;;;15.35;13.05;;;9.90;99.90;;;;;;5090542;28;20504;-77
2022/03/28 11:36:10;;;;;;;18.57;13.80;;;10.00;99.90;;;;;;5090398;28;20408;-77
2022/03/28 11:38:38;;;;;;;20.52;15.57;;;10.10;99.90;;;;;;5100914;27;20501;-77
2022/03/28 11:41:05;;;;;;;21.05;18.42;;;10.10;99.90;;;;;;5110826;27;20411;-77
2022/03/28 11:43:32;;;;;;;18.73;15.93;;;10.20;99.90;;;;;;5111060;27;20418;-77
2022/03/28 11:45:59;;;;;;;18.55;15.48;;;10.30;99.90;;;;;;5110644;27;20771;-77
2022/03/28 11:48:25;;;;;;;20.65;17.35;;;10.30;99.90;;;;;;5109520;27;20517;-77
2022/03/28 11:50:53;;;;;;;21.20;18.33;;;10.30;99.90;;;;;;5129480;27;20489;-76
2022/03/28 11:53:19;;;;;;;22.35;19.05;;;10.40;99.90;;;;;;5110893;27;20468;-77
2022/03/28 11:55:55;;;;;;;21.92;18.48;;;10.30;99.90;;;;;;5110902;27;20402;-76
2022/03/28 11:58:32;;;;;;;21.02;18.13;;;10.40;99.90;;;;;;5110395;27;20395;-77
2022/03/28 12:01:10;;;;;;;23.58;18.77;;;10.40;99.90;;;;;;5110746;27;20425;-77
2022/03/28 12:03:46;;;;;;;20.97;18.63;;;10.40;99.90;;;;;;5110698;28;20410;-77
2022/03/28 12:06:12;;;;;;;21.15;16.73;;;10.40;99.90;;;;;;5128802;27;20430;-77
2022/03/28 12:08:38;;;;;;;22.15;17.65;;;10.50;99.90;;;;;;5110407;28;20511;-77
2022/03/28 12:11:04;;;;;;;21.88;17.50;;;10.60;99.90;;;;;;5128672;27;20434;-77
2022/03/28 12:13:29;;;;;;;20.43;17.20;;;10.50;99.90;;;;;;5129298;28;20483;-77
2022/03/28 12:15:56;;;;;;;22.13;16.83;;;10.50;99.90;;;;;;5128678;28;20395;-76
2022/03/28 12:18:24;;;;;;;20.23;16.65;;;10.60;99.90;;;;;;5127879;28;20397;-77
2022/03/28 12:20:53;;;;;;;20.75;16.90;;;10.60;99.90;;;;;;5128986;28;20757;-77
2022/03/28 12:23:23;;;;;;;21.25;17.20;;;10.50;99.90;;;;;;5128825;28;20449;-77
2022/03/28 12:25:50;;;;;;;20.23;17.20;;;10.50;99.90;;;;;;5128607;28;21028;-77
2022/03/28 12:28:18;;;;;;;19.45;16.88;;;10.50;99.90;;;;;;5110259;28;20433;-77
2022/03/28 12:30:48;;;;;;;19.02;15.98;;;10.40;99.90;;;;;;5110123;28;20756;-77
2022/03/28 12:33:20;;;;;;;20.97;16.17;;;10.50;99.90;;;;;;5110770;28;20519;-77
2022/03/28 12:35:48;;;;;;;19.85;15.82;;;10.50;99.90;;;;;;5110458;28;20907;-76
2022/03/28 12:38:23;;;;;;;16.75;14.95;;;10.50;99.90;;;;;;5121036;28;20953;-76
2022/03/28 12:40:54;;;;;;;17.75;13.82;;;10.50;99.90;;;;;;5107929;28;20438;-76
2022/03/28 12:43:25;;;;;;;17.63;13.43;;;10.60;99.90;;;;;;5089351;28;20454;-76
2022/03/28 12:46:01;;;;;;;17.40;13.73;;;10.60;99.90;;;;;;5089933;28;20458;-76
2022/03/28 12:48:59;;;;;;;19.00;13.63;;;10.70;99.90;;;;;;5107814;28;20424;-76
2022/03/28 12:51:31;;;;;;;17.60;13.32;;;10.70;99.90;;;;;;5073413;28;20473;-78
2022/03/28 12:54:05;;;;;;;15.48;12.18;;;10.70;99.90;;;;;;5107829;28;20470;-76
2022/03/28 12:56:54;;;;;;;15.00;11.10;;;10.70;99.90;;;;;;5089663;28;20427;-76
2022/03/28 12:59:33;;;;;;;13.00;10.05;;;10.80;99.90;;;;;;5110087;28;20392;-76
2022/03/28 13:02:14;;;;;;;13.73;9.27;;;10.80;99.90;;;;;;5111456;28;20491;-77
2022/03/28 13:04:51;;;;;;;13.80;9.55;;;10.80;99.90;;;;;;5093521;28;20419;-76
2022/03/28 13:07:24;;;;;;;11.52;9.13;;;10.90;99.90;;;;;;5093026;28;20453;-76
2022/03/28 13:10:00;;;;;;;11.90;9.60;;;10.80;99.90;;;;;;5093949;28;20793;-76
2022/03/28 13:12:55;;;;;;;11.18;9.57;;;10.80;99.90;;;;;;5092830;28;20495;-76
2022/03/28 13:15:25;;;;;;;11.38;8.95;;;10.80;99.90;;;;;;5091373;28;20412;-76
2022/03/28 13:18:12;;;;;;;12.30;9.63;;;10.80;99.90;;;;;;5093469;28;20409;-76
2022/03/28 13:20:41;;;;;;;11.82;9.25;;;10.80;99.90;;;;;;5092879;28;20409;-76
2022/03/28 13:23:21;;;;;;;11.05;9.55;;;10.80;99.90;;;;;;5111605;28;20396;-76
2022/03/28 13:25:48;;;;;;;12.30;9.27;;;10.70;99.90;;;;;;5093259;28;20415;-76
2022/03/28 13:28:16;;;;;;;12.43;9.70;;;10.70;99.90;;;;;;5092901;28;20475;-76
2022/03/28 13:30:52;;;;;;;11.85;9.00;;;10.60;99.90;;;;;;5111221;28;20439;-76
2022/03/28 13:33:19;;;;;;;11.52;9.30;;;10.60;99.90;;;;;;5110498;28;20411;-76
2022/03/28 13:35:50;;;;;;;12.68;9.00;;;10.70;99.90;;;;;;5111231;28;20396;-76
2022/03/28 13:38:18;;;;;;;12.63;9.93;;;10.60;99.90;;;;;;5100191;27;20486;-75
2022/03/28 13:40:50;;;;;;;11.80;9.35;;;10.60;99.90;;;;;;5131241;27;20394;-76
2022/03/28 13:43:17;;;;;;;11.40;9.52;;;10.70;99.90;;;;;;5112357;27;20398;-76
2022/03/28 13:45:43;;;;;;;11.32;9.48;;;10.70;99.90;;;;;;5113099;27;20398;-76
2022/03/28 13:48:11;;;;;;;11.70;9.85;;;10.60;99.90;;;;;;5112945;27;20495;-76
2022/03/28 13:50:39;;;;;;;11.43;9.65;;;10.70;99.90;;;;;;5112512;27;20406;-75
2022/03/28 13:53:06;;;;;;;11.63;9.43;;;10.80;99.90;;;;;;5131651;27;20403;-76